Time;durP1;ratioP1;P1;durP2;ratioP2;P2;SDS_P1;SDS_P2;PMS_P1;PMS_P2;Temp;Humidity;BMP_temperature;BMP_pressure;BME280_temperature;BME280_humidity;BME280_pressure;Samples;Min_cycle;Max_cycle;Signal;HPM_P1;HPM_P2
2022/05/15 00:00:53;;;;;;;3.03;2.73;;;13.30;79.00;;;;;;5032753;28;20632;-84
2022/05/15 00:03:22;;;;;;;3.37;2.93;;;13.00;78.80;;;;;;5030788;28;20714;-84
2022/05/15 00:05:53;;;;;;;1.90;1.73;;;12.70;77.10;;;;;;5035649;28;21199;-84
2022/05/15 00:08:20;;;;;;;2.33;2.13;;;12.80;77.80;;;;;;5030506;28;20624;-85
2022/05/15 00:10:50;;;;;;;1.30;1.20;;;13.00;79.40;;;;;;5032855;28;20619;-83
2022/05/15 00:13:19;;;;;;;1.80;1.70;;;12.90;79.40;;;;;;5033408;28;21074;-84
2022/05/15 00:15:49;;;;;;;2.37;2.17;;;12.80;80.00;;;;;;5032033;28;20630;-83
2022/05/15 00:18:17;;;;;;;1.90;1.67;;;12.80;80.50;;;;;;5037796;28;21210;-84
2022/05/15 00:20:44;;;;;;;1.97;1.70;;;12.80;80.00;;;;;;5037061;28;20634;-84
2022/05/15 00:23:14;;;;;;;4.70;1.40;;;12.80;79.60;;;;;;5029883;28;20623;-84
2022/05/15 00:25:42;;;;;;;1.43;1.33;;;12.80;80.90;;;;;;5033983;28;20626;-84
2022/05/15 00:28:13;;;;;;;1.43;1.33;;;12.70;81.40;;;;;;5034642;28;21036;-84
2022/05/15 00:30:42;;;;;;;1.63;1.53;;;12.90;81.00;;;;;;5035574;28;20647;-84
2022/05/15 00:33:10;;;;;;;1.97;1.77;;;12.80;82.20;;;;;;5035843;28;20710;-84
2022/05/15 00:35:37;;;;;;;1.37;1.27;;;12.60;82.00;;;;;;5029236;28;20617;-84
2022/05/15 00:38:07;;;;;;;2.30;1.93;;;12.40;82.70;;;;;;5035081;28;20736;-84
2022/05/15 00:40:36;;;;;;;3.37;1.87;;;12.70;82.60;;;;;;5032842;28;21028;-84
2022/05/15 00:43:02;;;;;;;1.63;1.23;;;12.70;82.30;;;;;;5029980;28;21194;-83
2022/05/15 00:45:31;;;;;;;2.50;1.70;;;12.70;82.90;;;;;;5025962;28;20822;-85
2022/05/15 00:47:58;;;;;;;1.73;1.30;;;12.40;84.00;;;;;;5036827;28;21018;-84
2022/05/15 00:50:30;;;;;;;2.23;1.70;;;12.80;84.20;;;;;;5025575;28;20657;-84
2022/05/15 00:53:03;;;;;;;1.60;1.50;;;12.60;83.70;;;;;;5037190;28;20641;-84
2022/05/15 00:55:34;;;;;;;1.40;1.30;;;12.60;84.20;;;;;;5032195;28;20662;-84
2022/05/15 00:58:09;;;;;;;1.40;1.27;;;12.40;84.60;;;;;;5036709;28;20615;-84
2022/05/15 01:00:39;;;;;;;2.13;1.83;;;12.40;85.10;;;;;;5035407;28;20627;-84
2022/05/15 01:03:08;;;;;;;1.63;1.53;;;12.20;85.10;;;;;;5029761;28;20635;-84
2022/05/15 01:05:39;;;;;;;2.30;1.93;;;12.40;85.20;;;;;;5031264;28;20719;-84
2022/05/15 01:08:07;;;;;;;2.67;2.00;;;12.40;84.70;;;;;;5032292;28;20641;-84
2022/05/15 01:10:35;;;;;;;2.87;1.73;;;12.30;85.70;;;;;;5034106;28;20630;-85
2022/05/15 01:13:04;;;;;;;2.30;1.50;;;12.20;86.10;;;;;;5032521;28;21294;-84
2022/05/15 01:15:34;;;;;;;1.77;1.13;;;12.40;86.30;;;;;;5029254;28;20639;-84
2022/05/15 01:18:02;;;;;;;1.60;1.50;;;12.40;86.50;;;;;;5033352;28;21348;-84
2022/05/15 01:20:31;;;;;;;1.70;1.60;;;12.40;86.10;;;;;;5027311;28;21016;-86
2022/05/15 01:23:01;;;;;;;2.00;1.90;;;12.60;86.80;;;;;;5032295;28;21738;-85
2022/05/15 01:25:31;;;;;;;1.50;1.40;;;12.40;86.20;;;;;;5034654;28;20664;-84
2022/05/15 01:28:07;;;;;;;2.00;1.73;;;12.40;87.00;;;;;;5032263;28;20622;-84
2022/05/15 01:30:37;;;;;;;1.67;1.57;;;12.60;88.50;;;;;;5032362;28;20630;-82
2022/05/15 01:33:04;;;;;;;1.37;1.30;;;12.20;86.40;;;;;;5034284;28;20959;-85
2022/05/15 01:35:32;;;;;;;2.20;2.00;;;12.40;89.40;;;;;;5030468;28;20623;-84
2022/05/15 01:38:01;;;;;;;2.43;1.70;;;12.30;88.70;;;;;;5027697;28;20619;-83
2022/05/15 01:40:29;;;;;;;1.30;1.07;;;12.30;89.30;;;;;;5027961;28;20617;-84
2022/05/15 01:42:56;;;;;;;2.53;2.20;;;12.30;88.50;;;;;;5034579;28;20706;-84
2022/05/15 01:45:23;;;;;;;1.90;1.73;;;12.30;89.00;;;;;;5031766;28;20657;-83
2022/05/15 01:47:50;;;;;;;2.40;1.87;;;12.20;89.70;;;;;;5028534;28;20618;-85
2022/05/15 01:50:18;;;;;;;1.90;1.63;;;12.10;89.40;;;;;;5027809;28;20645;-84
2022/05/15 01:52:46;;;;;;;1.70;1.60;;;12.10;90.00;;;;;;5027316;28;20683;-84
2022/05/15 01:55:15;;;;;;;1.60;1.50;;;12.10;89.90;;;;;;5032452;28;20736;-84
2022/05/15 01:57:42;;;;;;;2.93;2.07;;;12.10;89.90;;;;;;5036193;28;20618;-84
2022/05/15 02:00:13;;;;;;;3.17;1.73;;;12.20;89.90;;;;;;5027309;28;20650;-84
2022/05/15 02:02:40;;;;;;;2.30;1.97;;;12.10;90.20;;;;;;5035472;28;21001;-84
2022/05/15 02:05:08;;;;;;;1.50;1.40;;;12.40;90.90;;;;;;5029457;28;20664;-85
2022/05/15 02:07:36;;;;;;;1.50;1.40;;;12.00;90.40;;;;;;5026257;28;20633;-84
2022/05/15 02:10:03;;;;;;;4.00;1.87;;;12.10;90.80;;;;;;5028053;28;20672;-84
2022/05/15 02:12:31;;;;;;;1.27;1.17;;;12.00;90.00;;;;;;5030085;28;20629;-84
2022/05/15 02:14:58;;;;;;;1.93;1.83;;;11.80;91.30;;;;;;5027971;28;20611;-84
2022/05/15 02:17:25;;;;;;;2.43;2.20;;;12.00;90.60;;;;;;5025417;28;20660;-84
2022/05/15 02:19:52;;;;;;;2.40;1.93;;;12.00;90.80;;;;;;5032676;28;20623;-84
2022/05/15 02:22:19;;;;;;;1.50;1.40;;;12.00;92.40;;;;;;5034468;28;20640;-85
2022/05/15 02:24:46;;;;;;;3.50;1.90;;;11.80;92.50;;;;;;5034656;28;20752;-84
2022/05/15 02:27:13;;;;;;;2.67;2.03;;;11.80;90.90;;;;;;5029100;28;20622;-84
2022/05/15 02:29:41;;;;;;;1.83;1.70;;;11.70;90.90;;;;;;5029743;28;21217;-84
2022/05/15 02:32:09;;;;;;;2.80;2.50;;;;;;;;;;5041329;28;20625;-83
2022/05/15 02:34:36;;;;;;;1.67;1.57;;;11.70;91.30;;;;;;5034198;28;20621;-84
2022/05/15 02:37:03;;;;;;;2.23;1.87;;;11.70;93.10;;;;;;5032837;28;21434;-84
2022/05/15 02:39:31;;;;;;;1.90;1.80;;;11.60;92.30;;;;;;5035197;28;20638;-85
2022/05/15 02:42:01;;;;;;;1.87;1.70;;;11.70;91.20;;;;;;5035274;28;20735;-84
2022/05/15 02:44:28;;;;;;;1.47;1.37;;;11.50;90.90;;;;;;5034268;28;20614;-84
2022/05/15 02:46:57;;;;;;;1.87;1.60;;;11.50;91.20;;;;;;5031076;28;20648;-85
2022/05/15 02:52:08;;;;;;;2.60;2.00;;;11.30;91.30;;;;;;5036775;28;21221;-84
2022/05/15 02:54:35;;;;;;;2.00;1.50;;;11.50;94.30;;;;;;5036064;28;20640;-84
2022/05/15 02:57:04;;;;;;;2.23;2.03;;;11.30;91.70;;;;;;5037337;28;21011;-84
2022/05/15 02:59:32;;;;;;;2.13;1.60;;;11.40;91.90;;;;;;5033530;28;20629;-84
2022/05/15 03:02:00;;;;;;;2.30;2.00;;;10.90;92.70;;;;;;5040864;28;20686;-84
2022/05/15 03:04:27;;;;;;;2.50;2.07;;;11.30;92.20;;;;;;5036613;28;21155;-85
2022/05/15 03:06:54;;;;;;;1.80;1.70;;;11.20;94.80;;;;;;5037883;28;21157;-85
2022/05/15 03:09:21;;;;;;;2.83;2.63;;;11.40;94.50;;;;;;5038496;28;21071;-84
2022/05/15 03:11:48;;;;;;;1.90;1.80;;;11.30;92.20;;;;;;5036499;28;20647;-84
2022/05/15 03:14:15;;;;;;;1.93;1.73;;;11.50;93.50;;;;;;5032559;28;21048;-84
2022/05/15 03:16:42;;;;;;;1.67;1.57;;;11.80;93.20;;;;;;5036912;28;20724;-84
2022/05/15 03:19:11;;;;;;;3.27;1.83;;;11.20;94.80;;;;;;5035647;28;20644;-84
2022/05/15 03:21:38;;;;;;;1.43;1.33;;;11.40;94.00;;;;;;5036062;28;20624;-84
2022/05/15 03:24:07;;;;;;;2.10;1.83;;;11.20;92.70;;;;;;5032428;28;20629;-84
2022/05/15 03:26:36;;;;;;;2.43;2.23;;;11.10;93.00;;;;;;5032066;28;20766;-84
2022/05/15 03:29:04;;;;;;;1.40;1.27;;;11.00;93.20;;;;;;5032378;28;20726;-84
2022/05/15 03:31:31;;;;;;;2.53;2.13;;;10.90;93.10;;;;;;5032213;28;20993;-84
2022/05/15 03:33:58;;;;;;;1.50;1.40;;;11.00;93.00;;;;;;5035615;28;20651;-84
2022/05/15 03:36:26;;;;;;;2.30;2.03;;;11.40;94.70;;;;;;5032784;28;20715;-84
2022/05/15 03:38:53;;;;;;;2.60;1.90;;;11.10;94.40;;;;;;5033993;28;20615;-85
2022/05/15 03:41:20;;;;;;;1.47;1.37;;;11.00;93.40;;;;;;5031186;28;20660;-84
2022/05/15 03:43:47;;;;;;;1.63;1.53;;;11.00;93.70;;;;;;5028931;28;20655;-84
2022/05/15 03:46:14;;;;;;;2.10;1.80;;;10.90;93.50;;;;;;5029856;28;20748;-84
2022/05/15 03:48:41;;;;;;;1.87;1.23;;;;;;;;;;5030521;28;20726;-83
2022/05/15 03:51:09;;;;;;;0.93;0.93;;;10.70;93.90;;;;;;5035691;28;20620;-84
2022/05/15 03:53:37;;;;;;;2.13;2.00;;;11.20;94.10;;;;;;5038061;28;20714;-84
2022/05/15 03:56:05;;;;;;;2.03;1.83;;;10.90;93.40;;;;;;5034777;28;21180;-84
2022/05/15 03:58:35;;;;;;;1.43;1.33;;;11.10;94.40;;;;;;5031930;28;20684;-84
2022/05/15 04:01:03;;;;;;;2.87;1.07;;;10.80;94.50;;;;;;5036720;28;20628;-84
2022/05/15 04:03:30;;;;;;;2.50;2.20;;;11.20;94.30;;;;;;5027316;28;20624;-83
2022/05/15 04:05:57;;;;;;;1.50;1.40;;;11.10;95.10;;;;;;5031001;28;22590;-84
2022/05/15 04:08:24;;;;;;;1.57;1.47;;;11.10;94.00;;;;;;5032594;28;20666;-84
2022/05/15 04:10:53;;;;;;;1.10;1.10;;;11.00;93.40;;;;;;5037013;28;20682;-83
2022/05/15 04:13:19;;;;;;;2.13;1.93;;;11.10;93.80;;;;;;5035859;28;20627;-85
2022/05/15 04:15:47;;;;;;;2.00;1.83;;;;;;;;;;5028665;28;20698;-84
2022/05/15 04:18:14;;;;;;;2.80;2.60;;;10.90;94.00;;;;;;5034470;28;20627;-84
2022/05/15 04:20:42;;;;;;;1.50;1.40;;;11.00;94.70;;;;;;5034317;28;20648;-83
2022/05/15 04:23:09;;;;;;;2.20;1.97;;;11.20;94.40;;;;;;5032980;28;20624;-84
2022/05/15 04:25:36;;;;;;;3.47;1.97;;;11.20;94.60;;;;;;5034193;28;20737;-84
2022/05/15 04:28:04;;;;;;;1.73;1.33;;;11.20;94.60;;;;;;5029834;28;20683;-85
2022/05/15 04:30:31;;;;;;;2.87;2.27;;;11.20;94.30;;;;;;5034520;28;21204;-84
2022/05/15 04:32:58;;;;;;;2.73;2.20;;;11.30;94.40;;;;;;5035765;28;20681;-84
2022/05/15 04:35:25;;;;;;;2.60;2.10;;;11.40;94.20;;;;;;5031666;28;21052;-84
2022/05/15 04:37:52;;;;;;;2.50;1.80;;;11.50;94.60;;;;;;5030942;28;20664;-85
2022/05/15 04:40:20;;;;;;;2.30;2.10;;;11.30;94.10;;;;;;5027688;28;20618;-84
2022/05/15 04:42:47;;;;;;;1.87;1.70;;;11.20;93.40;;;;;;5029467;28;20653;-84
2022/05/15 04:45:16;;;;;;;4.77;2.60;;;11.60;94.00;;;;;;5029308;28;21049;-84
2022/05/15 04:47:45;;;;;;;1.83;1.73;;;11.40;94.40;;;;;;5032757;28;21224;-84
2022/05/15 04:50:12;;;;;;;1.77;1.67;;;11.70;93.90;;;;;;5027428;28;20634;-84
2022/05/15 04:52:39;;;;;;;2.00;1.70;;;11.80;94.80;;;;;;5031332;28;20626;-84
2022/05/15 04:55:06;;;;;;;3.40;2.23;;;12.00;95.00;;;;;;5027397;28;20743;-85
2022/05/15 04:57:34;;;;;;;2.40;2.20;;;11.80;94.40;;;;;;5032412;28;20691;-84
2022/05/15 05:00:01;;;;;;;1.60;1.50;;;12.00;94.10;;;;;;5028096;28;20618;-85
2022/05/15 05:02:29;;;;;;;2.30;2.10;;;11.90;94.30;;;;;;5028355;28;20658;-84
2022/05/15 05:04:59;;;;;;;3.37;1.83;;;12.20;94.00;;;;;;5033823;28;20631;-85
2022/05/15 05:07:26;;;;;;;1.33;1.30;;;12.40;94.80;;;;;;5027243;28;20658;-85
2022/05/15 05:09:53;;;;;;;1.30;1.20;;;12.30;93.90;;;;;;5028812;28;20641;-85
2022/05/15 05:12:20;;;;;;;1.60;1.50;;;12.40;93.50;;;;;;5035049;28;20651;-83
2022/05/15 05:14:47;;;;;;;2.73;1.93;;;12.50;93.20;;;;;;5028474;28;22347;-84
2022/05/15 05:17:15;;;;;;;1.70;1.60;;;12.70;94.00;;;;;;5027996;28;20663;-84
2022/05/15 05:19:43;;;;;;;1.20;1.10;;;12.80;92.80;;;;;;5032585;28;21212;-84
2022/05/15 05:22:10;;;;;;;2.10;1.50;;;12.70;92.20;;;;;;5031253;28;21017;-84
2022/05/15 05:24:37;;;;;;;2.00;1.37;;;12.90;91.80;;;;;;5029701;28;20650;-85
2022/05/15 05:27:04;;;;;;;1.87;1.60;;;13.20;93.00;;;;;;5027565;28;20669;-84
2022/05/15 05:29:32;;;;;;;1.07;1.07;;;;;;;;;;5031777;28;21059;-83
2022/05/15 05:31:59;;;;;;;1.60;1.50;;;13.20;92.40;;;;;;5034134;28;20778;-85
2022/05/15 05:34:25;;;;;;;1.10;1.00;;;13.30;90.10;;;;;;5028872;28;20620;-84
2022/05/15 05:36:54;;;;;;;1.23;1.23;;;13.80;87.40;;;;;;5028651;28;20652;-84
2022/05/15 05:39:21;;;;;;;1.10;1.00;;;13.60;86.20;;;;;;5034617;28;20627;-85
2022/05/15 05:41:48;;;;;;;1.47;1.37;;;13.80;87.50;;;;;;5028799;28;20736;-85
2022/05/15 05:44:15;;;;;;;1.70;1.60;;;13.90;86.60;;;;;;5026827;28;20629;-84
2022/05/15 05:46:42;;;;;;;3.87;1.00;;;14.00;86.00;;;;;;5026978;28;20669;-85
2022/05/15 05:49:09;;;;;;;2.00;1.90;;;14.10;86.80;;;;;;5028422;28;20665;-84
2022/05/15 05:51:36;;;;;;;1.27;1.03;;;14.20;87.70;;;;;;5033878;28;21230;-85
2022/05/15 05:54:04;;;;;;;0.80;0.80;;;14.10;88.50;;;;;;5030759;28;20893;-85
2022/05/15 05:56:31;;;;;;;1.53;1.30;;;14.20;87.60;;;;;;5035918;28;20618;-85
2022/05/15 05:58:58;;;;;;;1.67;1.40;;;14.60;86.90;;;;;;5036457;28;20653;-85
2022/05/15 06:01:25;;;;;;;1.77;1.63;;;14.60;86.30;;;;;;5029041;28;20657;-85
2022/05/15 06:06:36;;;;;;;2.53;1.20;;;;;;;;;;5026938;28;20658;-85
2022/05/15 06:09:05;;;;;;;0.83;0.80;;;15.00;83.20;;;;;;5031837;28;20649;-85
2022/05/15 06:11:32;;;;;;;1.00;0.90;;;15.10;85.20;;;;;;5033010;28;20713;-84
2022/05/15 06:13:58;;;;;;;1.47;0.70;;;15.10;82.20;;;;;;5032395;28;20626;-85
2022/05/15 06:16:26;;;;;;;1.03;1.03;;;15.30;83.40;;;;;;5032725;28;20730;-84
2022/05/15 06:18:53;;;;;;;1.93;1.80;;;15.30;82.10;;;;;;5030381;28;20657;-85
2022/05/15 06:21:19;;;;;;;1.87;1.37;;;15.40;82.80;;;;;;5032421;28;20650;-85
2022/05/15 06:23:46;;;;;;;1.30;1.10;;;15.50;82.70;;;;;;5029050;28;20742;-84
2022/05/15 06:26:15;;;;;;;2.10;1.40;;;15.50;81.20;;;;;;5030294;28;20738;-85
2022/05/15 06:28:42;;;;;;;1.17;1.17;;;15.70;81.70;;;;;;5030333;28;20731;-85
2022/05/15 06:31:08;;;;;;;1.57;1.10;;;15.80;81.90;;;;;;5028844;28;20630;-85
2022/05/15 06:33:35;;;;;;;1.20;1.10;;;15.90;81.20;;;;;;5033614;28;20680;-85
2022/05/15 06:36:03;;;;;;;0.80;0.60;;;16.00;81.70;;;;;;5030164;28;20622;-86
2022/05/15 06:38:30;;;;;;;1.10;1.00;;;16.00;82.40;;;;;;5026375;28;20631;-84
2022/05/15 06:40:57;;;;;;;0.93;0.73;;;15.90;80.80;;;;;;5029806;28;20714;-84
2022/05/15 06:43:25;;;;;;;1.10;0.87;;;16.20;81.10;;;;;;5032941;28;21276;-83
2022/05/15 06:45:52;;;;;;;1.07;1.00;;;16.60;81.40;;;;;;5027734;28;21112;-83
2022/05/15 06:48:19;;;;;;;0.73;0.73;;;16.50;79.60;;;;;;5034354;28;20622;-84
2022/05/15 06:50:49;;;;;;;0.93;0.93;;;16.50;80.80;;;;;;5031816;28;20622;-86
2022/05/15 06:53:16;;;;;;;2.30;1.00;;;16.60;78.20;;;;;;5028624;28;20631;-84
2022/05/15 06:58:25;;;;;;;0.90;0.70;;;16.60;81.90;;;;;;5031471;28;20686;-86
2022/05/15 07:00:52;;;;;;;1.10;1.00;;;16.90;81.70;;;;;;5030947;28;20676;-85
2022/05/15 07:03:19;;;;;;;1.10;1.00;;;16.60;77.10;;;;;;5032225;28;20619;-85
2022/05/15 07:05:46;;;;;;;0.70;0.70;;;17.40;78.20;;;;;;5029114;28;20766;-86
2022/05/15 07:08:15;;;;;;;0.83;0.83;;;17.50;76.90;;;;;;5037023;28;20633;-85
2022/05/15 07:10:42;;;;;;;1.67;1.30;;;17.40;74.00;;;;;;5033404;28;20630;-84
2022/05/15 07:13:09;;;;;;;0.70;0.70;;;17.70;72.90;;;;;;5033865;28;20619;-84
2022/05/15 07:15:38;;;;;;;0.73;0.73;;;15.90;69.20;;;;;;5039499;28;20990;-85
2022/05/15 07:18:05;;;;;;;1.23;1.13;;;17.70;72.20;;;;;;5037972;28;20700;-84
2022/05/15 07:20:32;;;;;;;2.53;1.07;;;17.90;70.40;;;;;;5034368;28;21205;-86
2022/05/15 07:22:59;;;;;;;0.63;0.63;;;17.80;70.60;;;;;;5038972;28;20718;-86
2022/05/15 07:25:26;;;;;;;1.00;1.00;;;17.90;72.60;;;;;;5032599;28;20627;-83
2022/05/15 07:27:53;;;;;;;1.30;1.10;;;18.10;71.70;;;;;;5037677;28;20765;-85
2022/05/15 07:30:20;;;;;;;1.53;1.00;;;18.30;72.30;;;;;;5037311;28;21426;-86
2022/05/15 07:32:48;;;;;;;0.80;0.80;;;18.60;74.30;;;;;;5037935;28;21142;-86
2022/05/15 07:35:17;;;;;;;1.20;1.10;;;18.30;75.50;;;;;;5039943;28;20629;-86
2022/05/15 07:37:44;;;;;;;0.70;0.70;;;18.60;73.80;;;;;;5037260;28;21200;-85
2022/05/15 07:40:12;;;;;;;1.00;0.90;;;18.50;73.00;;;;;;5037542;28;20611;-84
2022/05/15 07:42:39;;;;;;;1.40;1.00;;;18.70;71.80;;;;;;5048159;28;20673;-86
2022/05/15 07:45:07;;;;;;;1.30;0.80;;;18.90;68.00;;;;;;5032186;28;21169;-85
2022/05/15 07:47:34;;;;;;;0.70;0.70;;;19.00;70.10;;;;;;5037644;28;20690;-85
2022/05/15 07:50:03;;;;;;;0.93;0.70;;;19.00;68.20;;;;;;5036869;28;20721;-84
2022/05/15 07:52:30;;;;;;;1.03;0.93;;;18.90;69.60;;;;;;5037373;28;20668;-86
2022/05/15 07:54:56;;;;;;;0.40;0.40;;;19.20;68.10;;;;;;5037026;28;20630;-85
2022/05/15 07:57:23;;;;;;;1.33;1.07;;;19.30;64.80;;;;;;5030059;28;20615;-85
2022/05/15 07:59:51;;;;;;;2.80;1.30;;;19.60;65.40;;;;;;5006142;28;20639;-86
2022/05/15 08:02:18;;;;;;;0.80;0.67;;;19.50;65.80;;;;;;5008264;28;20624;-86
2022/05/15 08:10:15;;;;;;;0.80;0.80;;;20.00;66.00;;;;;;5000409;28;22369;-85
2022/05/15 08:12:42;;;;;;;0.90;0.90;;;20.10;66.30;;;;;;5008323;28;20667;-86
2022/05/15 08:15:10;;;;;;;1.50;1.40;;;20.30;62.00;;;;;;5005137;28;20656;-85
2022/05/15 08:17:36;;;;;;;0.93;0.60;;;20.50;60.80;;;;;;5005686;28;20644;-87
2022/05/15 08:25:42;;;;;;;0.67;0.67;;;20.50;60.10;;;;;;4987908;28;22448;-85
2022/05/15 08:28:09;;;;;;;1.53;1.17;;;20.70;62.40;;;;;;5007853;28;21242;-86
2022/05/15 08:30:36;;;;;;;0.60;0.60;;;20.80;63.70;;;;;;5004775;28;20704;-85
2022/05/15 08:33:04;;;;;;;1.37;1.27;;;20.80;61.30;;;;;;5005209;28;20632;-85
2022/05/15 08:35:31;;;;;;;1.40;1.30;;;20.90;60.80;;;;;;5005364;28;21415;-85
2022/05/15 08:37:59;;;;;;;1.43;1.23;;;21.30;63.30;;;;;;5006416;28;20683;-84
2022/05/15 08:40:30;;;;;;;0.83;0.80;;;21.10;65.70;;;;;;5005322;28;21052;-85
2022/05/15 08:42:59;;;;;;;1.10;1.00;;;21.20;65.80;;;;;;5006072;28;20628;-85
2022/05/15 08:45:31;;;;;;;5.20;0.90;;;21.30;61.80;;;;;;5001763;28;20744;-85
2022/05/15 08:48:03;;;;;;;1.10;0.90;;;21.20;60.80;;;;;;5004276;28;20695;-84
2022/05/15 08:50:35;;;;;;;1.03;0.93;;;21.20;62.80;;;;;;5002144;28;21286;-85
2022/05/15 08:53:07;;;;;;;1.43;1.33;;;21.20;63.20;;;;;;5003727;28;20715;-85
2022/05/15 08:55:37;;;;;;;0.83;0.83;;;21.40;63.70;;;;;;5004555;28;20644;-85
2022/05/15 08:58:06;;;;;;;1.20;1.10;;;21.50;63.40;;;;;;5004468;28;21298;-84
2022/05/15 09:00:36;;;;;;;1.03;1.00;;;21.50;62.60;;;;;;5005312;28;20715;-85
2022/05/15 09:03:12;;;;;;;1.40;1.30;;;21.60;63.60;;;;;;5006990;28;20640;-85
2022/05/15 09:05:43;;;;;;;1.33;1.23;;;21.70;65.90;;;;;;5003223;28;20628;-84
2022/05/15 09:08:29;;;;;;;0.83;0.80;;;21.70;63.00;;;;;;5003861;28;20664;-84
2022/05/15 09:11:01;;;;;;;0.83;0.83;;;21.80;61.60;;;;;;5004289;28;20612;-84
2022/05/15 09:13:36;;;;;;;0.93;0.70;;;22.10;59.80;;;;;;5005578;28;20731;-85
2022/05/15 09:16:04;;;;;;;0.70;0.63;;;22.10;59.00;;;;;;5002652;28;20703;-85
2022/05/15 09:18:33;;;;;;;3.90;1.00;;;22.20;59.50;;;;;;5002402;28;21093;-87
2022/05/15 09:21:07;;;;;;;1.00;1.00;;;22.30;58.20;;;;;;5002178;28;20644;-84
2022/05/15 09:23:39;;;;;;;1.30;1.20;;;22.40;58.20;;;;;;5005981;28;20731;-85
2022/05/15 09:26:16;;;;;;;1.57;1.27;;;22.60;58.00;;;;;;5002969;28;20725;-84
2022/05/15 09:28:46;;;;;;;2.30;1.00;;;22.50;58.30;;;;;;5003668;28;20675;-85
2022/05/15 09:31:28;;;;;;;1.13;0.90;;;22.50;58.60;;;;;;5001437;28;20660;-85
2022/05/15 09:34:00;;;;;;;1.13;1.03;;;22.50;58.40;;;;;;5004675;28;21208;-86
2022/05/15 09:36:30;;;;;;;2.00;0.90;;;22.70;59.80;;;;;;5000036;28;20670;-85
2022/05/15 09:39:17;;;;;;;2.07;1.10;;;22.90;59.60;;;;;;5001978;28;20616;-85
2022/05/15 09:44:31;;;;;;;1.30;1.20;;;23.00;59.90;;;;;;5002947;28;20639;-86
2022/05/15 09:47:01;;;;;;;1.40;1.30;;;23.20;59.70;;;;;;5001913;28;20660;-85
2022/05/15 09:49:32;;;;;;;1.10;1.00;;;23.50;57.70;;;;;;5003579;28;20621;-84
2022/05/15 09:52:02;;;;;;;1.20;1.10;;;23.30;57.60;;;;;;5001518;28;21170;-85
2022/05/15 09:54:42;;;;;;;1.30;1.20;;;23.30;58.70;;;;;;5002336;28;20632;-85
2022/05/15 09:57:13;;;;;;;1.43;1.33;;;24.10;63.80;;;;;;5002838;28;20678;-85
2022/05/15 09:59:40;;;;;;;1.17;1.07;;;23.60;55.90;;;;;;5004056;28;20707;-85
2022/05/15 10:02:16;;;;;;;1.00;1.00;;;23.90;56.70;;;;;;5002821;28;20659;-85
2022/05/15 10:04:48;;;;;;;0.87;0.80;;;24.10;56.60;;;;;;5001678;28;20724;-84
2022/05/15 10:07:31;;;;;;;1.23;1.17;;;24.00;53.00;;;;;;5001179;28;21021;-86
2022/05/15 10:10:12;;;;;;;0.77;0.77;;;24.10;53.80;;;;;;5003367;28;20714;-86
2022/05/15 10:12:40;;;;;;;1.10;1.00;;;24.10;54.10;;;;;;5006686;28;20621;-86
2022/05/15 10:15:09;;;;;;;1.27;1.17;;;24.10;54.60;;;;;;5001023;28;20666;-86
2022/05/15 10:17:43;;;;;;;1.13;1.10;;;24.20;53.50;;;;;;5001221;28;20625;-87
2022/05/15 10:20:18;;;;;;;1.30;1.10;;;24.20;54.50;;;;;;5001977;28;21166;-85
2022/05/15 10:22:51;;;;;;;1.80;1.27;;;24.40;55.60;;;;;;5004299;28;21098;-86
2022/05/15 10:25:22;;;;;;;1.37;1.27;;;24.40;54.50;;;;;;5003315;28;21250;-86
2022/05/15 10:27:55;;;;;;;0.90;0.90;;;24.60;68.30;;;;;;5002334;28;21177;-86
2022/05/15 10:30:30;;;;;;;1.40;1.30;;;25.80;63.30;;;;;;5002649;28;20643;-84
2022/05/15 10:33:01;;;;;;;1.63;1.30;;;24.70;62.80;;;;;;4997751;28;20745;-84
2022/05/15 10:35:36;;;;;;;1.20;1.10;;;25.00;51.90;;;;;;5000782;28;20616;-85
2022/05/15 10:38:17;;;;;;;1.33;1.23;;;25.30;55.80;;;;;;5000260;28;20720;-84
2022/05/15 10:40:53;;;;;;;1.53;1.03;;;26.40;57.00;;;;;;5000656;28;20624;-86
2022/05/15 10:43:36;;;;;;;0.97;0.97;;;25.30;57.60;;;;;;5003439;28;20639;-86
2022/05/15 10:46:13;;;;;;;1.00;0.80;;;25.70;55.70;;;;;;5000231;28;20683;-85
2022/05/15 10:48:52;;;;;;;1.27;1.17;;;25.50;51.90;;;;;;5001268;28;20726;-84
2022/05/15 10:51:23;;;;;;;0.80;0.80;;;26.20;66.90;;;;;;5005770;28;20652;-86
2022/05/15 10:57:24;;;;;;;2.37;1.27;;;26.40;59.10;;;;;;5004064;28;20616;-85
2022/05/15 10:59:59;;;;;;;1.10;1.10;;;26.20;48.80;;;;;;5006997;28;20635;-85
2022/05/15 11:03:05;;;;;;;1.20;1.10;;;26.50;54.30;;;;;;5005053;28;21041;-85
2022/05/15 11:05:34;;;;;;;1.57;1.30;;;26.10;58.50;;;;;;5004362;28;20619;-86
2022/05/15 11:08:19;;;;;;;0.93;0.93;;;26.50;49.70;;;;;;5005051;28;20690;-85
2022/05/15 11:10:51;;;;;;;1.30;1.20;;;27.10;56.70;;;;;;5004533;28;21220;-85
2022/05/15 11:13:24;;;;;;;0.83;0.83;;;26.90;57.20;;;;;;5003473;28;20621;-84
2022/05/15 11:15:58;;;;;;;1.13;1.03;;;27.20;57.20;;;;;;5005263;28;20777;-84
2022/05/15 11:18:44;;;;;;;1.50;1.40;;;27.50;50.90;;;;;;5003914;28;20632;-87
2022/05/15 11:21:15;;;;;;;1.30;0.90;;;27.30;48.70;;;;;;5001485;28;20635;-85
2022/05/15 11:23:50;;;;;;;1.10;1.00;;;27.20;48.40;;;;;;5007499;28;20624;-86
2022/05/15 11:26:24;;;;;;;1.20;1.20;;;27.70;52.60;;;;;;4991565;28;20620;-85
2022/05/15 11:28:55;;;;;;;1.53;1.20;;;28.10;57.70;;;;;;5005419;28;21068;-85
2022/05/15 11:31:27;;;;;;;1.00;1.00;;;28.20;46.20;;;;;;5001512;28;20724;-87
2022/05/15 11:33:57;;;;;;;1.10;1.07;;;28.30;55.10;;;;;;5004406;28;20628;-85
2022/05/15 11:36:33;;;;;;;2.60;1.60;;;28.90;53.80;;;;;;5003173;28;20706;-86
2022/05/15 11:39:04;;;;;;;1.40;1.07;;;29.10;48.90;;;;;;5004490;28;20639;-85
2022/05/15 11:41:40;;;;;;;1.20;1.10;;;29.30;48.20;;;;;;5006384;28;21281;-85
2022/05/15 11:44:12;;;;;;;1.20;0.90;;;28.40;44.50;;;;;;5001546;28;20719;-85
2022/05/15 11:47:02;;;;;;;1.33;0.90;;;29.80;55.80;;;;;;4995000;28;20628;-85
2022/05/15 11:49:35;;;;;;;1.53;1.10;;;29.90;56.20;;;;;;5003728;28;20671;-85
2022/05/15 11:52:18;;;;;;;1.30;1.10;;;30.40;52.70;;;;;;5003154;28;20775;-88
2022/05/15 11:54:48;;;;;;;1.10;1.00;;;31.10;46.70;;;;;;5003053;28;20712;-86
2022/05/15 11:57:34;;;;;;;0.97;0.97;;;31.30;51.70;;;;;;5003283;28;20685;-85
2022/05/15 12:00:06;;;;;;;1.17;1.10;;;31.70;42.10;;;;;;5004398;28;21183;-87
2022/05/15 12:02:51;;;;;;;0.90;0.90;;;32.10;49.70;;;;;;5001679;28;20631;-87
2022/05/15 12:05:26;;;;;;;0.90;0.90;;;31.90;49.20;;;;;;5002422;28;21475;-86
2022/05/15 12:07:56;;;;;;;1.27;1.00;;;32.10;44.10;;;;;;5002087;28;20664;-86
2022/05/15 12:11:08;;;;;;;1.13;1.10;;;31.90;41.40;;;;;;5004166;28;20634;-86
2022/05/15 12:13:39;;;;;;;0.80;0.80;;;32.30;50.10;;;;;;4948230;28;20749;-86
2022/05/15 12:16:28;;;;;;;1.30;1.20;;;32.40;49.30;;;;;;4989742;28;20646;-84
2022/05/15 12:19:06;;;;;;;0.80;0.80;;;33.50;47.30;;;;;;5001179;28;20664;-83
2022/05/15 12:21:42;;;;;;;1.40;1.30;;;33.90;47.10;;;;;;5003803;28;20620;-86
2022/05/15 12:24:30;;;;;;;1.10;1.00;;;34.20;39.50;;;;;;5003656;28;20627;-81
2022/05/15 12:27:21;;;;;;;2.13;2.03;;;35.40;37.20;;;;;;4981130;28;20204;-85
2022/05/15 12:30:16;;;;;;;1.00;1.00;;;35.20;36.00;;;;;;4991302;28;20549;-83
2022/05/15 12:32:47;;;;;;;1.10;1.10;;;34.90;35.90;;;;;;5002476;28;20207;-84
2022/05/15 12:35:16;;;;;;;1.03;1.03;;;35.20;36.90;;;;;;5003450;28;20205;-85
2022/05/15 12:37:56;;;;;;;1.20;1.20;;;35.30;36.00;;;;;;5002670;28;20220;-83
2022/05/15 12:40:27;;;;;;;0.98;0.98;;;35.80;35.40;;;;;;5002350;28;20201;-84
2022/05/15 12:42:54;;;;;;;0.98;0.98;;;35.50;48.10;;;;;;5005513;28;20289;-84
2022/05/15 12:45:22;;;;;;;1.10;1.10;;;35.60;35.10;;;;;;5002477;28;20207;-83
2022/05/15 12:48:01;;;;;;;1.05;1.02;;;35.50;35.80;;;;;;5001289;28;20223;-85
2022/05/15 12:50:28;;;;;;;1.05;1.05;;;35.60;36.40;;;;;;5001005;28;20201;-84
2022/05/15 12:52:57;;;;;;;1.27;1.17;;;36.10;35.30;;;;;;5003854;28;20196;-85
2022/05/15 12:55:27;;;;;;;1.33;1.30;;;36.30;35.30;;;;;;5002765;28;20200;-84
2022/05/15 12:57:56;;;;;;;1.52;1.42;;;36.30;35.60;;;;;;5003027;28;21024;-83
2022/05/15 13:00:28;;;;;;;0.82;0.82;;;36.90;34.40;;;;;;5003617;28;20292;-84
2022/05/15 13:03:01;;;;;;;1.00;1.00;;;36.90;34.80;;;;;;5005447;28;21410;-85
2022/05/15 13:05:31;;;;;;;1.35;1.25;;;37.10;35.40;;;;;;5001982;28;20284;-85
2022/05/15 13:07:59;;;;;;;1.20;1.10;;;37.10;34.70;;;;;;5003006;28;20215;-83
2022/05/15 13:10:28;;;;;;;0.90;0.90;;;37.30;34.60;;;;;;5001888;28;20284;-82
2022/05/15 13:12:57;;;;;;;1.15;1.15;;;37.90;33.80;;;;;;5005677;28;20220;-85
2022/05/15 13:15:26;;;;;;;1.38;1.27;;;38.00;32.00;;;;;;5001693;28;20992;-84
2022/05/15 13:17:54;;;;;;;1.45;0.75;;;38.00;33.20;;;;;;5004810;28;20335;-85
2022/05/15 13:20:25;;;;;;;1.00;1.00;;;37.40;33.80;;;;;;5003242;28;20204;-84
2022/05/15 13:22:54;;;;;;;1.10;1.00;;;37.70;32.80;;;;;;5002865;28;20192;-84
2022/05/15 13:25:26;;;;;;;0.95;0.95;;;37.90;33.10;;;;;;5002555;28;20197;-84
2022/05/15 13:27:54;;;;;;;0.98;0.98;;;38.20;33.20;;;;;;5004212;28;20299;-85